createdAt,value
2019-04-11T00:02:06.702Z,99.90
2019-04-11T00:04:36.515Z,99.90
2019-04-11T00:07:06.302Z,99.90
2019-04-11T00:09:35.991Z,99.90
2019-04-11T00:12:06.786Z,99.90
2019-04-11T00:14:36.536Z,99.90
2019-04-11T00:17:06.339Z,99.90
2019-04-11T00:19:39.891Z,99.90
2019-04-11T00:22:11.021Z,99.90
2019-04-11T00:24:41.138Z,99.90
2019-04-11T00:27:10.850Z,99.90
2019-04-11T00:29:40.755Z,99.90
2019-04-11T00:32:12.316Z,99.90
2019-04-11T00:34:42.785Z,99.90
2019-04-11T00:37:12.764Z,99.90
2019-04-11T00:39:43.713Z,99.90
2019-04-11T00:42:14.735Z,99.90
2019-04-11T00:44:45.220Z,99.90
2019-04-11T00:47:15.279Z,99.90
2019-04-11T00:49:46.375Z,99.90
2019-04-11T00:52:16.326Z,99.90
2019-04-11T00:54:46.961Z,99.90
2019-04-11T00:57:16.923Z,99.90
2019-04-11T00:59:46.803Z,99.90
2019-04-11T01:02:17.675Z,99.90
2019-04-11T01:04:48.675Z,99.90
2019-04-11T01:07:18.722Z,99.90
2019-04-11T01:09:48.619Z,99.90
2019-04-11T01:12:20.587Z,99.90
2019-04-11T01:14:51.245Z,99.90
2019-04-11T01:17:21.407Z,99.90
2019-04-11T01:19:51.180Z,99.90
2019-04-11T01:22:20.915Z,99.90
2019-04-11T01:24:50.679Z,99.90
2019-04-11T01:27:21.540Z,99.90
2019-04-11T01:29:51.590Z,99.90
2019-04-11T01:32:22.295Z,99.90
2019-04-11T01:34:52.993Z,99.90
2019-04-11T01:37:23.933Z,99.90
2019-04-11T01:39:59.470Z,99.90
2019-04-11T01:42:31.185Z,99.90
2019-04-11T01:45:01.189Z,99.90
2019-04-11T01:47:50.990Z,99.90
2019-04-11T01:50:25.074Z,99.90
2019-04-11T01:52:55.034Z,99.90
2019-04-11T01:55:26.020Z,99.90
2019-04-11T01:57:56.312Z,99.90
2019-04-11T02:00:36.540Z,99.90
2019-04-11T02:03:08.761Z,99.90
2019-04-11T02:05:38.775Z,99.90
2019-04-11T02:08:09.252Z,99.90
2019-04-11T02:10:39.194Z,99.90
2019-04-11T02:13:10.007Z,99.90
2019-04-11T02:15:40.737Z,99.90
2019-04-11T02:18:10.958Z,99.90
2019-04-11T02:20:41.016Z,99.90
2019-04-11T02:23:19.906Z,99.90
2019-04-11T02:26:11.474Z,99.90
2019-04-11T02:28:41.254Z,99.90
2019-04-11T02:31:12.242Z,99.90
2019-04-11T02:33:43.350Z,99.90
2019-04-11T02:36:13.752Z,99.90
2019-04-11T02:38:44.125Z,99.90
2019-04-11T02:41:14.228Z,99.90
2019-04-11T02:43:46.799Z,99.90
2019-04-11T02:46:23.242Z,99.90
2019-04-11T02:48:49.654Z,99.90
2019-04-11T02:51:20.555Z,99.90
2019-04-11T02:53:52.014Z,99.90
2019-04-11T02:56:23.886Z,99.90
2019-04-11T02:58:54.697Z,99.90
2019-04-11T03:01:26.249Z,99.90
2019-04-11T03:03:59.080Z,99.90
2019-04-11T03:06:28.962Z,99.90
2019-04-11T03:09:00.048Z,99.90
2019-04-11T03:11:30.343Z,99.90
2019-04-11T03:14:03.424Z,99.90
2019-04-11T03:16:48.275Z,99.90
2019-04-11T03:19:17.834Z,99.90
2019-04-11T03:21:41.145Z,99.90
2019-04-11T03:24:10.853Z,99.90
2019-04-11T03:26:41.323Z,99.90
2019-04-11T03:29:12.827Z,99.90
2019-04-11T03:32:24.647Z,99.90
2019-04-11T03:39:41.190Z,99.90
2019-04-11T03:42:07.918Z,99.90
2019-04-11T03:44:28.661Z,99.90
2019-04-11T03:47:11.231Z,99.90
2019-04-11T03:49:31.700Z,99.90
2019-04-11T03:51:55.925Z,99.90
2019-04-11T03:54:25.941Z,99.90
2019-04-11T03:56:57.279Z,99.90
2019-04-11T03:59:28.848Z,99.90
2019-04-11T04:02:03.239Z,99.90
2019-04-11T04:04:35.106Z,99.90
2019-04-11T04:07:06.776Z,99.90
2019-04-11T04:09:37.390Z,99.90
2019-04-11T04:12:09.564Z,99.90
2019-04-11T04:14:46.633Z,99.90
2019-04-11T04:17:35.183Z,99.90
2019-04-11T04:20:19.358Z,99.90
2019-04-11T04:22:56.477Z,99.90
2019-04-11T04:25:28.394Z,99.90
2019-04-11T04:27:58.939Z,99.90
2019-04-11T04:30:29.812Z,99.90
2019-04-11T04:33:00.596Z,99.90
2019-04-11T04:35:31.726Z,99.90
2019-04-11T04:38:05.155Z,99.90
2019-04-11T04:40:51.196Z,99.90
2019-04-11T04:43:09.618Z,99.90
2019-04-11T04:45:57.843Z,99.90
2019-04-11T04:48:12.313Z,99.90
2019-04-11T04:50:44.720Z,99.90
2019-04-11T04:53:13.733Z,99.90
2019-04-11T04:55:45.311Z,99.90
2019-04-11T04:58:15.799Z,99.90
2019-04-11T05:00:46.480Z,99.90
2019-04-11T05:03:17.768Z,99.90
2019-04-11T05:05:48.469Z,99.90
2019-04-11T05:08:18.622Z,99.90
2019-04-11T05:10:49.164Z,99.90
2019-04-11T05:13:19.480Z,99.90
2019-04-11T05:16:02.846Z,99.90
2019-04-11T05:18:21.421Z,99.90
2019-04-11T05:20:52.654Z,99.90
2019-04-11T05:23:23.510Z,99.90
2019-04-11T05:25:53.530Z,99.90
2019-04-11T05:28:23.450Z,99.90
2019-04-11T05:30:53.309Z,99.90
2019-04-11T05:33:23.274Z,99.90
2019-04-11T05:35:53.998Z,99.90
2019-04-11T05:38:25.305Z,99.90
2019-04-11T05:40:55.110Z,99.90
2019-04-11T05:43:29.303Z,99.90
2019-04-11T05:45:56.714Z,99.90
2019-04-11T05:48:43.000Z,99.90
2019-04-11T05:51:13.095Z,99.90
2019-04-11T05:53:43.760Z,99.90
2019-04-11T05:56:16.705Z,99.90
2019-04-11T05:58:47.327Z,99.90
2019-04-11T06:01:22.474Z,99.90
2019-04-11T06:03:55.452Z,99.90
2019-04-11T06:06:31.935Z,99.90
2019-04-11T06:09:04.343Z,99.90
2019-04-11T06:11:48.241Z,99.90
2019-04-11T06:14:27.596Z,99.90
2019-04-11T06:17:02.193Z,99.90
2019-04-11T06:19:42.436Z,99.90
2019-04-11T06:22:12.781Z,99.90
2019-04-11T06:25:09.187Z,99.90
2019-04-11T06:27:47.628Z,99.90
2019-04-11T06:30:36.754Z,99.90
2019-04-11T06:33:22.717Z,99.90
2019-04-11T06:36:14.422Z,99.90
2019-04-11T06:38:49.172Z,99.90
2019-04-11T06:41:44.808Z,99.90
2019-04-11T06:44:39.894Z,99.90
2019-04-11T06:47:32.549Z,99.90
2019-04-11T06:50:22.973Z,99.90
2019-04-11T06:52:55.306Z,99.90
2019-04-11T06:55:57.300Z,99.90
2019-04-11T06:58:34.959Z,99.90
2019-04-11T07:01:09.788Z,99.90
2019-04-11T07:03:44.956Z,99.90
2019-04-11T07:06:19.591Z,99.90
2019-04-11T07:09:03.352Z,99.90
2019-04-11T07:11:42.593Z,99.90
2019-04-11T07:14:37.676Z,99.90
2019-04-11T07:17:25.070Z,99.90
2019-04-11T07:20:20.886Z,99.90
2019-04-11T07:23:08.322Z,99.90
2019-04-11T07:25:57.850Z,99.90
2019-04-11T07:28:45.968Z,99.90
2019-04-11T07:31:33.790Z,99.90
2019-04-11T07:34:32.614Z,99.90
2019-04-11T07:37:17.557Z,99.90
2019-04-11T07:40:25.091Z,99.90
2019-04-11T07:43:18.883Z,99.90
2019-04-11T07:46:24.606Z,99.90
2019-04-11T07:49:03.775Z,99.90
2019-04-11T07:52:02.520Z,99.90
2019-04-11T07:54:32.987Z,99.90
2019-04-11T07:57:13.282Z,99.90
2019-04-11T07:59:57.778Z,99.90
2019-04-11T08:02:45.734Z,99.90
2019-04-11T08:05:34.576Z,99.90
2019-04-11T08:08:21.216Z,99.90
2019-04-11T08:11:11.576Z,99.90
2019-04-11T08:13:53.617Z,99.90
2019-04-11T08:16:44.887Z,99.90
2019-04-11T08:19:33.627Z,99.90
2019-04-11T08:22:21.722Z,99.90
2019-04-11T08:25:01.902Z,99.90
2019-04-11T08:27:54.720Z,99.90
2019-04-11T08:30:16.975Z,99.90
2019-04-11T08:33:02.295Z,99.90
2019-04-11T08:35:53.459Z,99.90
2019-04-11T08:38:24.935Z,99.90
2019-04-11T08:41:11.440Z,99.90
2019-04-11T08:43:41.538Z,99.90
2019-04-11T08:46:18.459Z,99.90
2019-04-11T08:48:51.366Z,98.20
2019-04-11T08:51:21.202Z,99.90
2019-04-11T08:54:21.567Z,99.90
2019-04-11T08:56:51.625Z,99.90
2019-04-11T08:59:44.060Z,97.70
2019-04-11T09:02:26.915Z,99.90
2019-04-11T09:05:22.727Z,99.90
2019-04-11T09:08:26.716Z,99.90
2019-04-11T09:11:14.906Z,99.90
2019-04-11T09:14:06.141Z,99.90
2019-04-11T09:17:01.784Z,99.90
2019-04-11T09:20:07.377Z,99.90
2019-04-11T09:22:47.346Z,99.90
2019-04-11T09:25:37.028Z,95.70
2019-04-11T09:28:17.998Z,97.10
2019-04-11T09:31:19.368Z,99.50
2019-04-11T09:34:14.416Z,92.10
2019-04-11T09:36:53.408Z,90.90
2019-04-11T09:39:41.476Z,90.30
2019-04-11T09:42:30.347Z,89.80
2019-04-11T09:45:25.732Z,91.90
2019-04-11T09:48:33.782Z,87.90
2019-04-11T09:51:26.472Z,83.90
2019-04-11T09:54:02.096Z,83.10
2019-04-11T09:56:45.124Z,81.60
2019-04-11T09:59:20.855Z,75.00
2019-04-11T10:02:03.942Z,74.50
2019-04-11T10:04:36.056Z,78.90
2019-04-11T10:07:26.386Z,76.10
2019-04-11T10:10:12.824Z,74.60
2019-04-11T10:13:02.645Z,74.90
2019-04-11T10:15:43.545Z,67.00
2019-04-11T10:18:37.307Z,68.30
2019-04-11T10:21:02.962Z,67.60
2019-04-11T10:24:05.090Z,63.50
2019-04-11T10:26:38.382Z,63.00
2019-04-11T10:29:28.962Z,65.90
2019-04-11T10:31:58.941Z,69.50
2019-04-11T10:34:46.618Z,67.80
2019-04-11T10:37:18.620Z,67.70
2019-04-11T10:40:07.953Z,69.40
2019-04-11T10:42:42.477Z,68.80
2019-04-11T10:45:44.799Z,66.80
2019-04-11T10:48:15.840Z,64.10
2019-04-11T10:51:00.381Z,64.50
2019-04-11T10:53:31.199Z,66.10
2019-04-11T10:56:19.127Z,68.40
2019-04-11T10:58:51.406Z,71.10
2019-04-11T11:01:40.339Z,71.90
2019-04-11T11:04:13.856Z,69.70
2019-04-11T11:06:45.104Z,68.20
2019-04-11T11:09:30.433Z,65.60
2019-04-11T11:12:29.624Z,62.40
2019-04-11T11:15:15.579Z,63.10
2019-04-11T11:18:42.951Z,65.30
2019-04-11T11:20:51.355Z,64.20
2019-04-11T11:23:35.292Z,60.70
2019-04-11T11:26:32.063Z,58.80
2019-04-11T11:29:30.155Z,60.60
2019-04-11T11:32:11.180Z,63.40
2019-04-11T11:35:03.615Z,58.70
2019-04-11T11:37:51.203Z,59.50
2019-04-11T11:40:58.472Z,63.90
2019-04-11T11:43:30.938Z,61.00
2019-04-11T11:46:19.650Z,63.80
2019-04-11T11:48:59.114Z,59.30
2019-04-11T11:51:49.764Z,61.00
2019-04-11T11:54:34.035Z,59.70
2019-04-11T11:57:08.673Z,60.50
2019-04-11T11:59:41.334Z,62.50
2019-04-11T12:02:17.441Z,58.10
2019-04-11T12:04:57.111Z,58.10
2019-04-11T12:07:35.105Z,60.40
2019-04-11T12:10:26.121Z,62.50
2019-04-11T12:13:14.405Z,60.40
2019-04-11T12:16:16.022Z,59.90
2019-04-11T12:18:58.425Z,60.50
2019-04-11T12:21:31.842Z,59.20
2019-04-11T12:24:22.985Z,62.10
2019-04-11T12:27:22.006Z,61.70
2019-04-11T12:30:10.711Z,57.80
2019-04-11T12:32:46.672Z,59.10
2019-04-11T12:35:28.985Z,59.90
2019-04-11T12:38:03.940Z,57.80
2019-04-11T12:40:51.214Z,57.30
2019-04-11T12:43:20.990Z,57.80
2019-04-11T12:46:08.817Z,60.30
2019-04-11T12:48:42.345Z,62.50
2019-04-11T12:51:31.275Z,65.60
2019-04-11T12:54:01.282Z,68.70
2019-04-11T12:56:56.334Z,68.80
2019-04-11T12:59:28.782Z,69.60
2019-04-11T13:02:16.438Z,64.50
2019-04-11T13:04:46.842Z,63.70
2019-04-11T13:07:29.646Z,64.50
2019-04-11T13:10:06.034Z,62.40
2019-04-11T13:12:46.166Z,65.60
2019-04-11T13:15:35.028Z,64.10
2019-04-11T13:18:22.755Z,60.90
2019-04-11T13:20:59.860Z,59.60
2019-04-11T13:23:40.518Z,59.50
2019-04-11T13:26:27.963Z,63.00
2019-04-11T13:29:22.290Z,66.40
2019-04-11T13:32:10.135Z,62.60
2019-04-11T13:34:40.654Z,62.10
2019-04-11T13:37:29.497Z,62.00
2019-04-11T13:40:12.239Z,61.90
2019-04-11T13:43:00.238Z,62.20
2019-04-11T13:45:30.020Z,58.70
2019-04-11T13:48:27.781Z,58.20
2019-04-11T13:50:58.639Z,60.50
2019-04-11T13:53:48.534Z,61.90
2019-04-11T13:56:18.948Z,67.90
2019-04-11T13:59:06.842Z,72.50
2019-04-11T14:01:37.930Z,65.30
2019-04-11T14:04:23.642Z,64.50
2019-04-11T14:06:56.964Z,64.90
2019-04-11T14:09:36.366Z,63.70
2019-04-11T14:12:12.041Z,63.30
2019-04-11T14:15:11.167Z,64.00
2019-04-11T14:18:11.799Z,64.40
2019-04-11T14:20:44.990Z,63.30
2019-04-11T14:23:33.943Z,67.20
2019-04-11T14:26:14.815Z,66.80
2019-04-11T14:28:51.152Z,68.60
2019-04-11T14:31:39.148Z,70.80
2019-04-11T14:34:29.395Z,69.60
2019-04-11T14:37:04.619Z,66.80
2019-04-11T14:39:37.263Z,71.70
2019-04-11T14:42:45.830Z,69.90
2019-04-11T14:45:22.471Z,70.50
2019-04-11T14:48:10.199Z,67.40
2019-04-11T14:50:58.981Z,62.10
2019-04-11T14:54:05.108Z,59.70
2019-04-11T14:56:35.355Z,56.90
2019-04-11T14:59:37.605Z,53.50
2019-04-11T15:02:18.403Z,51.10
2019-04-11T15:05:06.296Z,49.30
2019-04-11T15:07:37.074Z,47.80
2019-04-11T15:10:27.766Z,51.60
2019-04-11T15:12:57.817Z,55.20
2019-04-11T15:15:34.614Z,57.00
2019-04-11T15:18:05.207Z,61.90
2019-04-11T15:20:55.819Z,63.00
2019-04-11T15:23:32.961Z,62.50
2019-04-11T15:26:22.103Z,56.10
2019-04-11T15:29:05.694Z,51.80
2019-04-11T15:31:40.614Z,52.10
2019-04-11T15:34:17.719Z,52.70
2019-04-11T15:37:10.110Z,53.60
2019-04-11T15:39:57.988Z,56.50
2019-04-11T15:42:40.499Z,57.90
2019-04-11T15:45:26.387Z,59.40
2019-04-11T15:48:15.158Z,65.10
2019-04-11T15:51:06.770Z,65.30
2019-04-11T15:53:48.522Z,61.10
2019-04-11T15:56:40.858Z,61.70
2019-04-11T15:59:24.480Z,62.40
2019-04-11T16:02:12.157Z,60.60
2019-04-11T16:05:02.070Z,63.00
2019-04-11T16:07:51.626Z,68.20
2019-04-11T16:10:21.586Z,69.60
2019-04-11T16:12:57.829Z,68.50
2019-04-11T16:15:31.390Z,69.60
2019-04-11T16:18:29.532Z,73.50
2019-04-11T16:21:02.593Z,75.30
2019-04-11T16:23:56.955Z,69.70
2019-04-11T16:26:37.446Z,68.00
2019-04-11T16:29:38.693Z,66.80
2019-04-11T16:32:10.662Z,66.70
2019-04-11T16:35:03.658Z,66.00
2019-04-11T16:37:33.738Z,66.70
2019-04-11T16:40:23.119Z,66.00
2019-04-11T16:43:01.331Z,63.30
2019-04-11T16:45:48.919Z,64.00
2019-04-11T16:48:18.733Z,66.00
2019-04-11T16:50:48.417Z,66.70
2019-04-11T16:53:18.186Z,74.40
2019-04-11T16:55:47.954Z,80.70
2019-04-11T16:58:19.663Z,86.20
2019-04-11T17:00:52.070Z,84.40
2019-04-11T17:03:24.780Z,75.90
2019-04-11T17:06:17.275Z,80.90
2019-04-11T17:08:56.409Z,83.90
2019-04-11T17:11:27.583Z,90.10
2019-04-11T17:13:58.005Z,93.80
2019-04-11T17:16:30.059Z,93.20
2019-04-11T17:18:59.204Z,94.80
2019-04-11T17:21:29.488Z,95.70
2019-04-11T17:24:01.898Z,99.60
2019-04-11T17:26:31.678Z,99.60
2019-04-11T17:29:02.349Z,99.90
2019-04-11T17:31:32.254Z,99.90
2019-04-11T17:34:02.787Z,99.90
2019-04-11T17:36:33.803Z,99.20
2019-04-11T17:39:07.041Z,98.90
2019-04-11T17:41:41.721Z,98.30
2019-04-11T17:44:11.848Z,99.90
2019-04-11T17:46:41.719Z,99.90
2019-04-11T17:49:11.590Z,99.90
2019-04-11T17:51:42.910Z,99.90
2019-04-11T17:54:13.201Z,97.10
2019-04-11T17:56:44.986Z,97.30
2019-04-11T17:59:14.777Z,99.30
2019-04-11T18:01:45.065Z,99.90
2019-04-11T18:04:19.638Z,99.90
2019-04-11T18:06:49.507Z,99.90
2019-04-11T18:09:20.452Z,99.90
2019-04-11T18:11:50.775Z,99.90
2019-04-11T18:14:20.479Z,99.90
2019-04-11T18:16:50.256Z,99.90
2019-04-11T18:19:20.019Z,99.90
2019-04-11T18:21:49.790Z,99.90
2019-04-11T18:24:19.992Z,99.90
2019-04-11T18:26:52.027Z,99.90
2019-04-11T18:29:23.039Z,99.90
2019-04-11T18:31:53.323Z,99.90
2019-04-11T18:34:25.418Z,99.90
2019-04-11T18:36:55.108Z,99.90
2019-04-11T18:39:24.866Z,99.90
2019-04-11T18:41:54.777Z,99.90
2019-04-11T18:44:24.535Z,99.90
2019-04-11T18:46:54.230Z,99.90
2019-04-11T18:49:25.061Z,99.90
2019-04-11T18:51:54.912Z,99.90
2019-04-11T18:54:26.016Z,99.90
2019-04-11T18:56:56.003Z,99.90
2019-04-11T18:59:25.766Z,99.90
2019-04-11T19:01:55.615Z,99.90
2019-04-11T19:04:32.209Z,99.90
2019-04-11T19:06:56.924Z,99.90
2019-04-11T19:09:26.716Z,99.90
2019-04-11T19:11:56.458Z,99.90
2019-04-11T19:14:26.247Z,99.90
2019-04-11T19:16:55.930Z,99.90
2019-04-11T19:19:27.436Z,99.90
2019-04-11T19:21:57.291Z,99.90
2019-04-11T19:24:35.521Z,99.90
2019-04-11T19:26:58.949Z,99.90
2019-04-11T19:29:28.709Z,99.90
2019-04-11T19:31:58.524Z,99.90
2019-04-11T19:34:28.210Z,99.90
2019-04-11T19:36:57.922Z,99.90
2019-04-11T19:39:27.962Z,99.90
2019-04-11T19:41:57.713Z,99.90
2019-04-11T19:44:27.590Z,99.90
2019-04-11T19:46:57.303Z,99.90
2019-04-11T19:49:28.984Z,99.90
2019-04-11T19:51:58.632Z,99.90
2019-04-11T19:54:32.744Z,99.90
2019-04-11T19:57:03.771Z,99.90
2019-04-11T19:59:33.714Z,99.90
2019-04-11T20:02:04.694Z,99.90
2019-04-11T20:04:34.447Z,99.90
2019-04-11T20:07:04.202Z,99.90
2019-04-11T20:09:35.664Z,99.90
2019-04-11T20:12:05.517Z,99.90
2019-04-11T20:14:35.491Z,99.90
2019-04-11T20:17:05.290Z,99.90
2019-04-11T20:19:34.986Z,99.90
2019-04-11T20:22:08.228Z,99.90
2019-04-11T20:24:36.159Z,99.90
2019-04-11T20:27:06.000Z,99.90
2019-04-11T20:29:35.757Z,99.90
2019-04-11T20:32:05.523Z,99.90
2019-04-11T20:34:38.282Z,99.90
2019-04-11T20:37:06.623Z,99.90
2019-04-11T20:39:36.346Z,99.90
2019-04-11T20:42:06.149Z,99.90
2019-04-11T20:44:35.854Z,99.90
2019-04-11T20:47:07.659Z,99.90
2019-04-11T20:49:48.062Z,99.90
2019-04-11T20:52:17.798Z,99.90
2019-04-11T20:54:47.586Z,99.90
2019-04-11T20:57:25.618Z,99.90
2019-04-11T20:59:50.263Z,99.90
2019-04-11T21:02:19.961Z,99.90
2019-04-11T21:04:49.834Z,99.90
2019-04-11T21:07:20.690Z,99.90
2019-04-11T21:09:50.435Z,99.90
2019-04-11T21:12:20.143Z,99.90
2019-04-11T21:14:49.895Z,99.90
2019-04-11T21:17:19.582Z,99.90
2019-04-11T21:19:50.959Z,99.90
2019-04-11T21:22:23.973Z,99.90
2019-04-11T21:24:52.110Z,99.90
2019-04-11T21:27:21.858Z,99.90
2019-04-11T21:29:51.565Z,99.90
2019-04-11T21:32:21.515Z,99.90
2019-04-11T21:34:51.246Z,99.90
2019-04-11T21:37:20.935Z,99.90
2019-04-11T21:39:50.642Z,99.90
2019-04-11T21:42:20.334Z,99.90
2019-04-11T21:44:50.049Z,99.90
2019-04-11T21:47:19.895Z,99.90
2019-04-11T21:49:49.628Z,99.90
2019-04-11T21:52:19.485Z,99.90
2019-04-11T21:54:49.165Z,99.90
2019-04-11T21:57:19.249Z,99.90
2019-04-11T21:59:51.500Z,99.90
2019-04-11T22:02:24.042Z,99.90
2019-04-11T22:04:52.682Z,99.90
2019-04-11T22:07:22.434Z,99.90
2019-04-11T22:09:52.242Z,99.90
2019-04-11T22:12:22.035Z,99.90
2019-04-11T22:14:51.726Z,99.90
2019-04-11T22:17:21.524Z,99.90
2019-04-11T22:19:51.322Z,99.90
2019-04-11T22:22:21.322Z,99.90
2019-04-11T22:24:50.998Z,99.90
2019-04-11T22:27:22.307Z,99.90
2019-04-11T22:29:55.187Z,99.90
2019-04-11T22:32:25.884Z,99.90
2019-04-11T22:34:56.839Z,99.90
2019-04-11T22:37:29.879Z,99.90
2019-04-11T22:40:01.694Z,99.90
2019-04-11T22:42:30.610Z,99.90
2019-04-11T22:45:00.326Z,99.90
2019-04-11T22:47:30.096Z,99.90
2019-04-11T22:49:59.823Z,99.90
2019-04-11T22:52:29.595Z,99.90
2019-04-11T22:55:00.334Z,99.90
2019-04-11T22:57:35.668Z,99.90
2019-04-11T23:00:08.017Z,99.90
2019-04-11T23:03:01.430Z,99.90
2019-04-11T23:05:32.432Z,99.90
2019-04-11T23:08:04.458Z,99.90
2019-04-11T23:10:34.133Z,99.90
2019-04-11T23:13:03.899Z,99.90
2019-04-11T23:15:33.646Z,99.90
2019-04-11T23:18:04.599Z,99.90
2019-04-11T23:20:34.362Z,99.90
2019-04-11T23:23:04.099Z,99.90
2019-04-11T23:25:33.809Z,99.90
2019-04-11T23:28:03.510Z,99.90
2019-04-11T23:30:33.355Z,99.90
2019-04-11T23:33:03.210Z,99.90
2019-04-11T23:35:32.946Z,99.90
2019-04-11T23:38:02.626Z,99.90
2019-04-11T23:40:32.450Z,99.90
2019-04-11T23:43:02.273Z,99.90
2019-04-11T23:45:32.262Z,99.90
2019-04-11T23:48:01.958Z,99.90
2019-04-11T23:50:31.648Z,99.90
2019-04-11T23:53:01.387Z,99.90
2019-04-11T23:55:31.131Z,99.90
2019-04-11T23:58:01.717Z,99.90
